createdAt,value
2022-11-02T00:01:57.996Z,15.70
2022-11-02T00:04:25.631Z,15.70
2022-11-02T00:06:52.921Z,15.60
2022-11-02T00:09:20.181Z,15.60
2022-11-02T00:11:47.479Z,15.50
2022-11-02T00:14:14.715Z,15.40
2022-11-02T00:16:42.345Z,15.40
2022-11-02T00:19:10.164Z,15.40
2022-11-02T00:21:38.386Z,15.40
2022-11-02T00:24:06.635Z,15.40
2022-11-02T00:26:35.361Z,15.30
2022-11-02T00:29:04.521Z,15.20
2022-11-02T00:31:32.192Z,15.10
2022-11-02T00:33:59.511Z,15.10
2022-11-02T00:36:27.926Z,15.10
2022-11-02T00:38:55.258Z,15.20
2022-11-02T00:41:22.519Z,15.20
2022-11-02T00:43:49.784Z,15.30
2022-11-02T00:46:17.115Z,15.30
2022-11-02T00:48:44.386Z,15.40
2022-11-02T00:51:12.773Z,15.40
2022-11-02T00:53:41.639Z,15.40
2022-11-02T00:56:09.002Z,15.40
2022-11-02T00:58:36.626Z,15.40
2022-11-02T01:01:08.764Z,15.40
2022-11-02T01:03:36.901Z,15.40
2022-11-02T01:06:15.554Z,15.30
2022-11-02T01:08:42.915Z,15.30
2022-11-02T01:11:24.204Z,15.30
2022-11-02T01:13:52.324Z,15.30
2022-11-02T01:16:20.520Z,15.30
2022-11-02T01:18:53.116Z,15.30
2022-11-02T01:21:21.557Z,15.20
2022-11-02T01:23:49.169Z,15.20
2022-11-02T01:26:17.087Z,15.10
2022-11-02T01:28:44.500Z,15.10
2022-11-02T01:31:13.581Z,15.10
2022-11-02T01:33:45.723Z,15.00
2022-11-02T01:36:15.556Z,15.00
2022-11-02T01:38:42.992Z,15.00
2022-11-02T01:41:12.118Z,15.00
2022-11-02T01:43:42.891Z,15.00
2022-11-02T01:46:13.250Z,14.90
2022-11-02T01:48:43.486Z,14.90
2022-11-02T01:51:17.407Z,14.90
2022-11-02T01:53:47.775Z,14.90
2022-11-02T01:56:17.962Z,14.80
2022-11-02T01:58:52.058Z,14.90
2022-11-02T02:01:19.543Z,14.90
2022-11-02T02:03:48.450Z,14.90
2022-11-02T02:06:17.985Z,14.80
2022-11-02T02:08:48.380Z,14.70
2022-11-02T02:11:36.418Z,14.70
2022-11-02T02:14:12.080Z,14.70
2022-11-02T02:16:51.975Z,14.70
2022-11-02T02:19:30.919Z,14.60
2022-11-02T02:22:17.338Z,14.60
2022-11-02T02:24:44.647Z,14.60
2022-11-02T02:27:29.052Z,14.50
2022-11-02T02:30:11.574Z,14.50
2022-11-02T02:32:59.495Z,14.60
2022-11-02T02:35:46.699Z,14.50
2022-11-02T02:38:30.587Z,14.50
2022-11-02T02:41:18.662Z,14.60
2022-11-02T02:43:56.169Z,14.60
2022-11-02T02:46:29.601Z,14.50
2022-11-02T02:48:58.381Z,14.50
2022-11-02T02:51:32.417Z,14.50
2022-11-02T02:54:23.245Z,14.50
2022-11-02T02:57:03.674Z,14.30
2022-11-02T02:59:42.371Z,14.40
2022-11-02T03:02:25.713Z,14.40
2022-11-02T03:04:53.690Z,14.40
2022-11-02T03:07:31.067Z,14.40
2022-11-02T03:10:28.175Z,14.40
2022-11-02T03:13:10.086Z,14.40
2022-11-02T03:15:42.204Z,14.30
2022-11-02T03:18:31.858Z,14.30
2022-11-02T03:21:26.799Z,14.30
2022-11-02T03:24:00.170Z,14.30
2022-11-02T03:26:43.312Z,14.30
2022-11-02T03:29:16.324Z,14.30
2022-11-02T03:31:57.071Z,14.20
2022-11-02T03:34:43.924Z,14.20
2022-11-02T03:37:14.310Z,14.20
2022-11-02T03:39:47.143Z,14.20
2022-11-02T03:42:19.772Z,14.10
2022-11-02T03:44:56.902Z,14.10
2022-11-02T03:47:26.342Z,14.10
2022-11-02T03:49:56.686Z,14.00
2022-11-02T03:52:28.831Z,14.00
2022-11-02T03:55:06.152Z,13.90
2022-11-02T03:57:44.411Z,13.90
2022-11-02T04:00:17.175Z,13.90
2022-11-02T04:02:59.322Z,13.90
2022-11-02T04:05:34.225Z,13.80
2022-11-02T04:08:20.993Z,13.70
2022-11-02T04:11:11.283Z,13.80
2022-11-02T04:13:58.368Z,14.00
2022-11-02T04:16:28.501Z,14.00
2022-11-02T04:19:16.888Z,14.10
2022-11-02T04:22:05.490Z,14.00
2022-11-02T04:24:53.911Z,14.00
2022-11-02T04:27:21.509Z,13.90
2022-11-02T04:29:50.917Z,14.00
2022-11-02T04:32:39.257Z,14.10
2022-11-02T04:35:10.680Z,14.10
2022-11-02T04:38:01.723Z,14.10
2022-11-02T04:40:33.479Z,14.10
2022-11-02T04:43:01.943Z,14.10
2022-11-02T04:45:29.279Z,14.10
2022-11-02T04:48:01.460Z,14.10
2022-11-02T04:50:29.599Z,14.10
2022-11-02T04:53:02.549Z,14.10
2022-11-02T04:55:31.770Z,14.10
2022-11-02T04:58:00.216Z,14.10
2022-11-02T05:00:27.699Z,14.00
2022-11-02T05:02:55.341Z,14.00
2022-11-02T05:05:24.514Z,14.00
2022-11-02T05:07:54.916Z,14.00
2022-11-02T05:10:23.329Z,14.00
2022-11-02T05:12:59.251Z,14.00
2022-11-02T05:15:30.606Z,14.00
2022-11-02T05:17:59.697Z,14.00
2022-11-02T05:20:29.827Z,14.00
2022-11-02T05:22:58.303Z,14.00
2022-11-02T05:25:25.904Z,14.00
2022-11-02T05:27:53.435Z,14.00
2022-11-02T05:30:20.820Z,14.00
2022-11-02T05:32:48.558Z,14.00
2022-11-02T05:35:16.361Z,14.00
2022-11-02T05:37:45.105Z,14.00
2022-11-02T05:40:12.788Z,14.00
2022-11-02T05:42:40.718Z,14.00
2022-11-02T05:45:08.420Z,14.00
2022-11-02T05:47:35.739Z,13.90
2022-11-02T05:50:03.319Z,14.00
2022-11-02T05:52:30.622Z,13.90
2022-11-02T05:54:57.914Z,13.90
2022-11-02T05:57:25.228Z,14.00
2022-11-02T05:59:52.557Z,13.90
2022-11-02T06:02:23.316Z,13.90
2022-11-02T06:04:53.017Z,13.90
2022-11-02T06:07:20.318Z,13.90
2022-11-02T06:09:47.672Z,13.80
2022-11-02T06:12:15.030Z,13.80
2022-11-02T06:14:42.273Z,13.80
2022-11-02T06:17:09.741Z,13.90
2022-11-02T06:19:37.032Z,13.90
2022-11-02T06:22:04.416Z,13.90
2022-11-02T06:24:31.667Z,14.00
2022-11-02T06:26:59.034Z,14.00
2022-11-02T06:29:26.327Z,14.00
2022-11-02T06:31:53.670Z,14.00
2022-11-02T06:34:20.948Z,14.00
2022-11-02T06:36:48.199Z,14.00
2022-11-02T06:39:15.529Z,14.00
2022-11-02T06:41:42.938Z,14.00
2022-11-02T06:44:10.186Z,14.00
2022-11-02T06:46:37.638Z,14.00
2022-11-02T06:49:05.125Z,14.10
2022-11-02T06:51:32.437Z,14.10
2022-11-02T06:54:03.285Z,14.10
2022-11-02T06:56:33.299Z,14.10
2022-11-02T06:59:00.686Z,14.10
2022-11-02T07:01:28.147Z,14.20
2022-11-02T07:03:55.593Z,14.20
2022-11-02T07:06:23.015Z,14.20
2022-11-02T07:08:50.383Z,14.30
2022-11-02T07:11:17.689Z,14.30
2022-11-02T07:13:45.349Z,14.30
2022-11-02T07:16:12.744Z,14.40
2022-11-02T07:18:41.318Z,14.50
2022-11-02T07:21:11.309Z,14.40
2022-11-02T07:23:38.839Z,14.40
2022-11-02T07:26:06.183Z,14.50
2022-11-02T07:28:33.585Z,14.50
2022-11-02T07:31:00.890Z,14.50
2022-11-02T07:33:28.219Z,14.60
2022-11-02T07:35:55.541Z,14.70
2022-11-02T07:38:22.874Z,14.80
2022-11-02T07:40:53.183Z,14.80
2022-11-02T07:43:20.594Z,14.80
2022-11-02T07:45:55.181Z,14.90
2022-11-02T07:48:22.489Z,14.90
2022-11-02T07:50:49.810Z,15.00
2022-11-02T07:53:17.114Z,15.00
2022-11-02T07:55:44.470Z,15.00
2022-11-02T07:58:14.888Z,15.10
2022-11-02T08:00:42.881Z,15.20
2022-11-02T08:03:12.132Z,15.30
2022-11-02T08:05:41.945Z,15.40
2022-11-02T08:08:20.702Z,15.60
2022-11-02T08:10:50.514Z,15.70
2022-11-02T08:13:20.552Z,15.80
2022-11-02T08:15:54.240Z,15.90
2022-11-02T08:18:26.402Z,15.90
2022-11-02T08:20:57.513Z,16.00
2022-11-02T08:23:25.766Z,16.10
2022-11-02T08:25:54.531Z,16.20
2022-11-02T08:28:27.867Z,16.30
2022-11-02T08:30:55.272Z,16.50
2022-11-02T08:33:22.553Z,16.70
2022-11-02T08:35:50.299Z,16.90
2022-11-02T08:38:18.391Z,17.10
2022-11-02T08:40:45.799Z,17.40
2022-11-02T08:43:14.552Z,17.70
2022-11-02T08:48:32.303Z,17.80
2022-11-02T08:50:59.653Z,17.90
2022-11-02T08:53:27.074Z,18.00
2022-11-02T08:55:58.068Z,18.00
2022-11-02T08:58:25.574Z,18.10
2022-11-02T09:00:53.648Z,18.10
2022-11-02T09:03:26.496Z,17.80
2022-11-02T09:06:02.417Z,17.50
2022-11-02T09:08:30.266Z,17.40
2022-11-02T09:11:00.943Z,17.50
2022-11-02T09:13:28.849Z,17.50
2022-11-02T09:15:58.223Z,17.50
2022-11-02T09:18:25.651Z,17.60
2022-11-02T09:20:53.103Z,17.70
2022-11-02T09:23:21.145Z,17.80
2022-11-02T09:25:49.694Z,17.80
2022-11-02T09:28:17.157Z,17.80
2022-11-02T09:30:44.601Z,17.80
2022-11-02T09:33:13.502Z,17.90
2022-11-02T09:35:43.677Z,17.70
2022-11-02T09:38:11.490Z,17.60
2022-11-02T09:40:59.799Z,17.40
2022-11-02T09:43:33.019Z,17.30
2022-11-02T09:46:06.868Z,17.30
2022-11-02T09:48:48.290Z,17.20
2022-11-02T09:51:20.246Z,17.00
2022-11-02T09:53:51.167Z,16.90
2022-11-02T09:56:20.008Z,16.80
2022-11-02T09:59:10.276Z,16.90
2022-11-02T10:01:58.061Z,16.70
2022-11-02T10:04:43.362Z,16.60
2022-11-02T10:07:38.276Z,16.40
2022-11-02T10:10:14.856Z,16.30
2022-11-02T10:13:14.471Z,16.30
2022-11-02T10:15:47.863Z,16.40
2022-11-02T10:18:26.384Z,16.50
2022-11-02T10:20:58.723Z,16.60
2022-11-02T10:23:41.307Z,16.70
2022-11-02T10:26:19.112Z,16.70
2022-11-02T10:28:56.546Z,16.80
2022-11-02T10:31:27.270Z,16.80
2022-11-02T10:33:58.176Z,16.80
2022-11-02T10:36:50.435Z,16.70
2022-11-02T10:39:29.971Z,16.70
2022-11-02T10:42:11.893Z,16.80
2022-11-02T10:45:01.555Z,16.80
2022-11-02T10:47:36.661Z,16.90
2022-11-02T10:50:08.039Z,16.80
2022-11-02T10:52:42.761Z,16.80
2022-11-02T10:55:27.631Z,16.90
2022-11-02T10:57:58.715Z,16.90
2022-11-02T11:00:33.494Z,16.90
2022-11-02T11:03:08.776Z,17.00
2022-11-02T11:05:43.163Z,17.10
2022-11-02T11:08:38.846Z,17.10
2022-11-02T11:11:33.316Z,17.20
2022-11-02T11:19:52.316Z,17.20
2022-11-02T11:22:39.788Z,17.20
2022-11-02T11:25:13.320Z,17.20
2022-11-02T11:27:55.954Z,17.20
2022-11-02T11:33:25.904Z,17.30
2022-11-02T11:35:53.358Z,17.20
2022-11-02T11:38:28.423Z,17.20
2022-11-02T11:40:58.911Z,17.20
2022-11-02T11:43:35.014Z,17.20
2022-11-02T11:46:07.335Z,17.20
2022-11-02T11:48:39.675Z,17.20
2022-11-02T11:51:28.748Z,17.20
2022-11-02T11:54:06.434Z,17.20
2022-11-02T11:56:34.684Z,17.20
2022-11-02T11:59:02.058Z,17.20
2022-11-02T12:01:40.192Z,17.20
2022-11-02T12:04:08.530Z,17.30
2022-11-02T12:06:59.679Z,17.20
2022-11-02T12:09:34.716Z,17.20
2022-11-02T12:12:11.903Z,17.20
2022-11-02T12:15:01.401Z,17.20
2022-11-02T12:17:43.607Z,17.20
2022-11-02T12:20:10.886Z,17.20
2022-11-02T12:23:13.532Z,17.20
2022-11-02T12:25:55.622Z,17.20
2022-11-02T12:28:37.554Z,17.30
2022-11-02T12:31:30.213Z,17.30
2022-11-02T12:34:06.686Z,17.20
2022-11-02T12:37:01.683Z,17.20
2022-11-02T12:39:55.401Z,17.20
2022-11-02T12:42:27.374Z,17.20
2022-11-02T12:45:09.789Z,17.20
2022-11-02T12:47:59.217Z,17.20
2022-11-02T12:50:55.586Z,17.20
2022-11-02T12:53:40.747Z,17.10
2022-11-02T12:56:13.899Z,17.10
2022-11-02T12:58:41.872Z,17.20
2022-11-02T13:01:35.424Z,17.20
2022-11-02T13:04:38.580Z,17.30
2022-11-02T13:07:14.873Z,17.30
2022-11-02T13:09:59.224Z,17.20
2022-11-02T13:12:27.696Z,17.10
2022-11-02T13:14:57.869Z,17.10
2022-11-02T13:17:41.945Z,17.00
2022-11-02T13:20:39.954Z,16.90
2022-11-02T13:23:14.690Z,16.90
2022-11-02T13:25:47.714Z,17.00
2022-11-02T13:28:18.659Z,17.00
2022-11-02T13:30:47.794Z,17.00
2022-11-02T13:33:20.298Z,17.10
2022-11-02T13:35:50.254Z,17.10
2022-11-02T13:38:31.381Z,17.10
2022-11-02T13:41:10.783Z,17.10
2022-11-02T13:43:56.290Z,17.20
2022-11-02T13:46:43.925Z,17.10
2022-11-02T13:49:20.206Z,17.20
2022-11-02T13:51:53.135Z,17.20
2022-11-02T13:54:41.791Z,17.10
2022-11-02T13:57:21.259Z,17.10
2022-11-02T13:59:48.746Z,17.10
2022-11-02T14:02:19.383Z,17.10
2022-11-02T14:04:48.613Z,17.10
2022-11-02T14:07:42.024Z,17.00
2022-11-02T14:10:19.867Z,17.00
2022-11-02T14:12:49.380Z,17.00
2022-11-02T14:15:16.620Z,17.00
2022-11-02T14:17:53.203Z,16.90
2022-11-02T14:20:39.122Z,17.00
2022-11-02T14:23:09.471Z,17.00
2022-11-02T14:25:46.044Z,17.00
2022-11-02T14:28:25.814Z,17.00
2022-11-02T14:31:19.201Z,17.00
2022-11-02T14:34:01.375Z,17.00
2022-11-02T14:36:40.554Z,16.90
2022-11-02T14:39:28.945Z,16.90
2022-11-02T14:42:15.320Z,16.90
2022-11-02T14:45:02.313Z,16.80
2022-11-02T14:47:32.707Z,16.80
2022-11-02T14:50:02.868Z,16.80
2022-11-02T14:52:33.111Z,16.80
2022-11-02T14:55:02.798Z,16.90
2022-11-02T14:57:33.307Z,16.90
2022-11-02T15:00:05.960Z,16.90
2022-11-02T15:02:42.199Z,16.90
2022-11-02T15:05:23.843Z,16.90
2022-11-02T15:07:58.159Z,16.90
2022-11-02T15:10:31.301Z,16.90
2022-11-02T15:13:17.313Z,16.90
2022-11-02T15:15:51.083Z,16.90
2022-11-02T15:18:35.766Z,16.90
2022-11-02T15:21:15.525Z,16.90
2022-11-02T15:24:09.802Z,16.90
2022-11-02T15:26:46.275Z,16.90
2022-11-02T15:29:41.126Z,16.80
2022-11-02T15:32:19.732Z,16.70
2022-11-02T15:34:52.243Z,16.70
2022-11-02T15:37:23.518Z,16.70
2022-11-02T15:39:59.103Z,16.80
2022-11-02T15:42:45.213Z,16.80
2022-11-02T15:48:27.167Z,16.80
2022-11-02T15:51:05.559Z,16.80
2022-11-02T15:53:38.938Z,16.80
2022-11-02T15:56:26.683Z,16.80
2022-11-02T15:58:56.950Z,16.80
2022-11-02T16:01:26.709Z,16.80
2022-11-02T16:04:21.411Z,16.80
2022-11-02T16:06:49.583Z,16.70
2022-11-02T16:09:33.438Z,16.70
2022-11-02T16:12:11.906Z,16.70
2022-11-02T16:14:40.694Z,16.70
2022-11-02T16:17:23.255Z,16.70
2022-11-02T16:19:51.129Z,16.70
2022-11-02T16:22:26.872Z,16.70
2022-11-02T16:24:54.904Z,16.70
2022-11-02T16:27:23.304Z,16.70
2022-11-02T16:29:51.019Z,16.60
2022-11-02T16:32:18.472Z,16.60
2022-11-02T16:34:46.221Z,16.60
2022-11-02T16:37:15.152Z,16.60
2022-11-02T16:39:46.516Z,16.60
2022-11-02T16:42:23.853Z,16.60
2022-11-02T16:44:59.342Z,16.60
2022-11-02T16:47:36.447Z,16.70
2022-11-02T16:50:17.677Z,16.70
2022-11-02T16:53:02.614Z,16.70
2022-11-02T16:55:51.713Z,16.60
2022-11-02T16:58:24.165Z,16.60
2022-11-02T17:00:54.493Z,16.60
2022-11-02T17:03:26.127Z,16.60
2022-11-02T17:05:54.320Z,16.60
2022-11-02T17:08:31.795Z,16.60
2022-11-02T17:11:01.665Z,16.60
2022-11-02T17:13:32.875Z,16.60
2022-11-02T17:16:05.807Z,16.60
2022-11-02T17:18:33.155Z,16.60
2022-11-02T17:21:27.915Z,16.60
2022-11-02T17:23:57.528Z,16.60
2022-11-02T17:26:31.404Z,16.60
2022-11-02T17:29:22.990Z,16.60
2022-11-02T17:32:00.516Z,16.60
2022-11-02T17:34:28.336Z,16.60
2022-11-02T17:36:55.812Z,16.60
2022-11-02T17:39:23.229Z,16.60
2022-11-02T17:42:13.581Z,16.60
2022-11-02T17:44:41.635Z,16.60
2022-11-02T17:47:13.980Z,16.60
2022-11-02T17:49:41.390Z,16.60
2022-11-02T17:52:13.935Z,16.50
2022-11-02T17:54:41.332Z,16.50
2022-11-02T17:57:15.679Z,16.50
2022-11-02T17:59:42.969Z,16.50
2022-11-02T18:02:15.297Z,16.40
2022-11-02T18:07:12.236Z,16.40
2022-11-02T18:09:39.890Z,16.40
2022-11-02T18:12:09.219Z,16.40
2022-11-02T18:14:36.762Z,16.40
2022-11-02T18:17:04.086Z,16.40
2022-11-02T18:19:33.276Z,16.40
2022-11-02T18:22:01.465Z,16.40
2022-11-02T18:24:28.784Z,16.40
2022-11-02T18:26:56.184Z,16.40
2022-11-02T18:29:23.563Z,16.40
2022-11-02T18:31:50.889Z,16.40
2022-11-02T18:34:18.211Z,16.40
2022-11-02T18:36:45.580Z,16.40
2022-11-02T18:39:13.266Z,16.30
2022-11-02T18:41:42.439Z,16.30
2022-11-02T18:44:15.008Z,16.40
2022-11-02T18:46:43.150Z,16.40
2022-11-02T18:49:10.574Z,16.40
2022-11-02T18:51:37.870Z,16.40
2022-11-02T18:54:06.454Z,16.40
2022-11-02T18:56:33.960Z,16.30
2022-11-02T18:59:01.903Z,16.30
2022-11-02T19:01:29.353Z,16.30
2022-11-02T19:04:00.500Z,16.30
2022-11-02T19:06:48.807Z,16.30
2022-11-02T19:09:20.642Z,16.30
2022-11-02T19:11:48.515Z,16.30
2022-11-02T19:14:17.273Z,16.30
2022-11-02T19:16:44.718Z,16.30
2022-11-02T19:19:12.129Z,16.30
2022-11-02T19:21:39.623Z,16.30
2022-11-02T19:24:07.863Z,16.30
2022-11-02T19:26:36.165Z,16.30
2022-11-02T19:29:06.361Z,16.30
2022-11-02T19:31:35.483Z,16.30
2022-11-02T19:34:03.442Z,16.30
2022-11-02T19:36:31.680Z,16.30
2022-11-02T19:39:00.191Z,16.30
2022-11-02T19:41:27.718Z,16.30
2022-11-02T19:43:55.313Z,16.30
2022-11-02T19:46:23.296Z,16.30
2022-11-02T19:48:50.857Z,16.40
2022-11-02T19:51:23.214Z,16.40
2022-11-02T19:53:52.773Z,16.40
2022-11-02T19:56:21.755Z,16.40
2022-11-02T19:58:51.337Z,16.40
2022-11-02T20:01:26.869Z,16.40
2022-11-02T20:03:55.669Z,16.40
2022-11-02T20:06:28.301Z,16.40
2022-11-02T20:08:57.504Z,16.40
2022-11-02T20:11:29.377Z,16.40
2022-11-02T20:14:00.482Z,16.40
2022-11-02T20:16:28.387Z,16.40
2022-11-02T20:18:56.498Z,16.40
2022-11-02T20:21:31.558Z,16.30
2022-11-02T20:24:01.777Z,16.30
2022-11-02T20:26:35.429Z,16.40
2022-11-02T20:29:04.557Z,16.40
2022-11-02T20:31:37.763Z,16.30
2022-11-02T20:34:07.288Z,16.30
2022-11-02T20:36:35.578Z,16.30
2022-11-02T20:39:05.826Z,16.30
2022-11-02T20:41:34.312Z,16.30
2022-11-02T20:44:02.917Z,16.30
2022-11-02T20:46:37.558Z,16.30
2022-11-02T20:49:20.232Z,16.30
2022-11-02T20:51:52.010Z,16.30
2022-11-02T20:54:21.107Z,16.30
2022-11-02T20:56:50.590Z,16.30
2022-11-02T20:59:19.543Z,16.20
2022-11-02T21:01:48.359Z,16.20
2022-11-02T21:04:20.908Z,16.20
2022-11-02T21:06:49.916Z,16.20
2022-11-02T21:09:18.039Z,16.20
2022-11-02T21:12:05.152Z,16.20
2022-11-02T21:14:33.955Z,16.20
2022-11-02T21:17:03.338Z,16.20
2022-11-02T21:19:31.735Z,16.20
2022-11-02T21:22:00.797Z,16.20
2022-11-02T21:24:30.332Z,16.20
2022-11-02T21:26:58.921Z,16.30
2022-11-02T21:29:27.146Z,16.30
2022-11-02T21:31:57.804Z,16.30
2022-11-02T21:34:25.474Z,16.30
2022-11-02T21:36:53.008Z,16.30
2022-11-02T21:39:20.357Z,16.30
2022-11-02T21:41:48.467Z,16.30
2022-11-02T21:44:15.912Z,16.30
2022-11-02T21:46:43.241Z,16.40
2022-11-02T21:49:10.863Z,16.40
2022-11-02T21:51:38.551Z,16.30
2022-11-02T21:54:05.922Z,16.40
2022-11-02T21:56:35.865Z,16.40
2022-11-02T21:59:03.317Z,16.40
2022-11-02T22:01:50.507Z,16.50
2022-11-02T22:04:25.249Z,16.50
2022-11-02T22:06:53.151Z,16.50
2022-11-02T22:09:20.787Z,16.50
2022-11-02T22:11:48.269Z,16.50
2022-11-02T22:14:15.653Z,16.40
2022-11-02T22:16:43.675Z,16.40
2022-11-02T22:19:13.360Z,16.40
2022-11-02T22:21:42.982Z,16.40
2022-11-02T22:24:11.142Z,16.40
2022-11-02T22:26:39.326Z,16.40
2022-11-02T22:29:07.019Z,16.40
2022-11-02T22:31:38.600Z,16.40
2022-11-02T22:34:08.234Z,16.40
2022-11-02T22:36:42.881Z,16.40
2022-11-02T22:39:31.432Z,16.40
2022-11-02T22:42:04.505Z,16.40
2022-11-02T22:44:38.388Z,16.40
2022-11-02T22:47:06.066Z,16.30
2022-11-02T22:49:39.605Z,16.30
2022-11-02T22:52:07.235Z,16.30
2022-11-02T22:54:41.126Z,16.30
2022-11-02T22:57:13.303Z,16.40
2022-11-02T22:59:40.524Z,16.30
2022-11-02T23:02:07.931Z,16.30
2022-11-02T23:04:35.271Z,16.30
2022-11-02T23:07:02.571Z,16.30
2022-11-02T23:09:29.988Z,16.40
2022-11-02T23:12:06.762Z,16.40
2022-11-02T23:14:34.074Z,16.40
2022-11-02T23:17:01.352Z,16.40
2022-11-02T23:19:33.024Z,16.40
2022-11-02T23:22:29.181Z,16.40
2022-11-02T23:25:20.056Z,16.40
2022-11-02T23:28:13.053Z,16.40
2022-11-02T23:30:59.936Z,16.40
2022-11-02T23:33:32.249Z,16.50
2022-11-02T23:36:12.588Z,16.40
2022-11-02T23:39:06.570Z,16.40
2022-11-02T23:41:36.781Z,16.40
2022-11-02T23:44:18.879Z,16.40
2022-11-02T23:46:50.639Z,16.40
2022-11-02T23:49:18.573Z,16.40
2022-11-02T23:52:04.531Z,16.40
2022-11-02T23:54:50.538Z,16.40
2022-11-02T23:57:18.671Z,16.40
2022-11-02T23:59:45.900Z,16.40
